createdAt,value
2023-04-26T00:00:09.763Z,101280.75
2023-04-26T00:00:31.651Z,101268.50
2023-04-26T00:00:53.469Z,101275.47
2023-04-26T00:01:16.514Z,101273.72
2023-04-26T00:01:39.074Z,101271.22
2023-04-26T00:02:00.740Z,101278.16
2023-04-26T00:02:22.570Z,101278.19
2023-04-26T00:02:44.334Z,101274.78
2023-04-26T00:03:07.888Z,101277.31
2023-04-26T00:03:31.420Z,101280.88
2023-04-26T00:03:53.383Z,101279.13
2023-04-26T00:04:15.429Z,101268.63
2023-04-26T00:04:37.655Z,101273.81
2023-04-26T00:05:02.012Z,101271.22
2023-04-26T00:05:25.867Z,101287.09
2023-04-26T00:05:48.850Z,101270.38
2023-04-26T00:06:12.166Z,101280.06
2023-04-26T00:06:34.832Z,101277.41
2023-04-26T00:06:56.655Z,101282.66
2023-04-26T00:07:20.556Z,101276.53
2023-04-26T00:07:42.537Z,101280.81
2023-04-26T00:08:05.630Z,101279.00
2023-04-26T00:08:27.213Z,101273.69
2023-04-26T00:08:49.927Z,101280.78
2023-04-26T00:09:11.660Z,101278.97
2023-04-26T00:09:33.568Z,101284.38
2023-04-26T00:09:55.174Z,101280.81
2023-04-26T00:10:16.794Z,101285.22
2023-04-26T00:10:40.691Z,101286.09
2023-04-26T00:11:02.457Z,101283.53
2023-04-26T00:11:24.051Z,101276.53
2023-04-26T00:11:45.723Z,101287.94
2023-04-26T00:12:07.964Z,101281.84
2023-04-26T00:12:30.597Z,101281.84
2023-04-26T00:12:52.323Z,101278.31
2023-04-26T00:13:13.958Z,101274.78
2023-04-26T00:13:37.102Z,101273.91
2023-04-26T00:14:00.164Z,101278.31
2023-04-26T00:14:21.846Z,101282.78
2023-04-26T00:14:43.496Z,101279.28
2023-04-26T00:15:06.222Z,101272.25
2023-04-26T00:15:28.866Z,101273.94
2023-04-26T00:15:50.752Z,101280.13
2023-04-26T00:16:14.281Z,101279.25
2023-04-26T00:16:36.124Z,101273.91
2023-04-26T00:16:58.790Z,101277.50
2023-04-26T00:17:20.581Z,101273.94
2023-04-26T00:17:42.950Z,101273.13
2023-04-26T00:18:04.943Z,101278.34
2023-04-26T00:18:27.737Z,101269.56
2023-04-26T00:18:50.157Z,101268.78
2023-04-26T00:19:12.670Z,101270.47
2023-04-26T00:19:34.296Z,101278.34
2023-04-26T00:19:57.505Z,101276.59
2023-04-26T00:20:19.679Z,101281.88
2023-04-26T00:20:41.450Z,101274.00
2023-04-26T00:21:03.150Z,101279.34
2023-04-26T00:21:24.906Z,101281.19
2023-04-26T00:21:47.432Z,101279.44
2023-04-26T00:22:09.220Z,101282.97
2023-04-26T00:23:09.258Z,101274.19
2023-04-26T00:23:30.860Z,101283.06
2023-04-26T00:23:53.478Z,101284.72
2023-04-26T00:24:15.221Z,101276.78
2023-04-26T00:24:36.858Z,101276.78
2023-04-26T00:24:58.534Z,101275.97
2023-04-26T00:25:20.177Z,101269.00
2023-04-26T00:25:42.816Z,101281.25
2023-04-26T00:26:04.714Z,101286.66
2023-04-26T00:26:26.290Z,101276.00
2023-04-26T00:26:48.155Z,101282.16
2023-04-26T00:27:10.816Z,101277.81
2023-04-26T00:27:32.419Z,101275.13
2023-04-26T00:27:54.060Z,101283.06
2023-04-26T00:28:15.860Z,101268.19
2023-04-26T00:28:39.157Z,101277.81
2023-04-26T00:29:00.808Z,101272.56
2023-04-26T00:29:22.515Z,101278.59
2023-04-26T00:29:44.282Z,101270.66
2023-04-26T00:30:07.533Z,101275.94
2023-04-26T00:30:29.626Z,101275.06
2023-04-26T00:30:52.255Z,101279.44
2023-04-26T00:31:15.226Z,101257.59
2023-04-26T00:31:36.945Z,101274.22
2023-04-26T00:31:59.478Z,101278.63
2023-04-26T00:32:22.139Z,101276.00
2023-04-26T00:32:43.997Z,101266.34
2023-04-26T00:33:05.771Z,101270.66
2023-04-26T00:33:27.950Z,101261.13
2023-04-26T00:33:52.199Z,101275.19
2023-04-26T00:34:14.082Z,101277.91
2023-04-26T00:34:36.614Z,101256.91
2023-04-26T00:34:58.218Z,101276.97
2023-04-26T00:35:20.621Z,101278.72
2023-04-26T00:35:43.369Z,101275.16
2023-04-26T00:36:05.247Z,101275.13
2023-04-26T00:36:27.774Z,101276.03
2023-04-26T00:36:49.616Z,101269.78
2023-04-26T00:37:12.320Z,101275.94
2023-04-26T00:37:33.941Z,101275.94
2023-04-26T00:37:55.520Z,101276.88
2023-04-26T00:38:18.478Z,101259.47
2023-04-26T00:38:41.258Z,101276.03
2023-04-26T00:39:03.497Z,101278.72
2023-04-26T00:39:25.340Z,101264.66
2023-04-26T00:39:47.536Z,101255.94
2023-04-26T00:40:11.418Z,101278.72
2023-04-26T00:40:35.416Z,101269.09
2023-04-26T00:40:57.102Z,101269.09
2023-04-26T00:41:18.817Z,101264.75
2023-04-26T00:41:40.540Z,101267.31
2023-04-26T00:42:03.220Z,101270.88
2023-04-26T00:42:26.928Z,101258.69
2023-04-26T00:42:48.608Z,101266.53
2023-04-26T00:43:11.042Z,101271.78
2023-04-26T00:43:33.685Z,101268.22
2023-04-26T00:43:55.698Z,101269.19
2023-04-26T00:44:17.325Z,101256.03
2023-04-26T00:44:40.352Z,101265.69
2023-04-26T00:45:03.191Z,101263.91
2023-04-26T00:45:24.914Z,101268.31
2023-04-26T00:45:46.723Z,101273.63
2023-04-26T00:46:09.018Z,101250.03
2023-04-26T00:46:31.201Z,101265.69
2023-04-26T00:46:55.827Z,101264.00
2023-04-26T00:47:17.745Z,101264.03
2023-04-26T00:47:39.586Z,101264.88
2023-04-26T00:48:02.644Z,101268.38
2023-04-26T00:48:26.231Z,101263.09
2023-04-26T00:48:48.450Z,101260.34
2023-04-26T00:49:13.572Z,101265.69
2023-04-26T00:49:35.291Z,101265.63
2023-04-26T00:49:58.006Z,101266.56
2023-04-26T00:50:20.512Z,101272.81
2023-04-26T00:50:42.433Z,101256.03
2023-04-26T00:51:05.068Z,101267.53
2023-04-26T00:51:27.154Z,101268.41
2023-04-26T00:51:49.903Z,101267.59
2023-04-26T00:52:12.542Z,101268.47
2023-04-26T00:52:34.176Z,101266.72
2023-04-26T00:52:57.268Z,101268.47
2023-04-26T00:53:20.901Z,101263.97
2023-04-26T00:53:43.770Z,101264.00
2023-04-26T00:54:05.556Z,101262.19
2023-04-26T00:54:27.284Z,101263.97
2023-04-26T00:54:49.395Z,101258.75
2023-04-26T00:55:12.347Z,101263.97
2023-04-26T00:55:34.617Z,101262.28
2023-04-26T00:55:56.611Z,101263.97
2023-04-26T00:56:19.514Z,101264.06
2023-04-26T00:56:42.512Z,101258.81
2023-04-26T00:57:07.096Z,101256.13
2023-04-26T00:57:28.718Z,101258.66
2023-04-26T00:57:50.593Z,101263.09
2023-04-26T00:58:12.481Z,101262.19
2023-04-26T00:58:34.124Z,101258.59
2023-04-26T00:58:56.938Z,101257.69
2023-04-26T00:59:20.164Z,101261.22
2023-04-26T00:59:41.849Z,101257.72
2023-04-26T01:00:04.104Z,101263.97
2023-04-26T01:00:27.701Z,101260.44
2023-04-26T01:00:50.303Z,101263.09
2023-04-26T01:01:13.341Z,101264.84
2023-04-26T01:01:35.617Z,101260.53
2023-04-26T01:01:57.592Z,101261.41
2023-04-26T01:02:20.988Z,101261.31
2023-04-26T01:02:43.518Z,101260.44
2023-04-26T01:03:05.872Z,101265.69
2023-04-26T01:03:28.360Z,101265.69
2023-04-26T01:03:51.494Z,101245.50
2023-04-26T01:04:14.866Z,101266.56
2023-04-26T01:04:37.342Z,101270.97
2023-04-26T01:04:59.128Z,101266.59
2023-04-26T01:05:21.886Z,101264.88
2023-04-26T01:05:43.625Z,101270.97
2023-04-26T01:06:05.677Z,101269.16
2023-04-26T01:06:33.064Z,101263.00
2023-04-26T01:06:56.375Z,101267.41
2023-04-26T01:07:18.378Z,101257.81
2023-04-26T01:07:40.196Z,101261.16
2023-04-26T01:08:02.560Z,101266.47
2023-04-26T01:08:28.348Z,101273.56
2023-04-26T01:08:53.902Z,101260.34
2023-04-26T01:09:18.166Z,101267.41
2023-04-26T01:09:42.118Z,101271.81
2023-04-26T01:10:05.454Z,101267.41
2023-04-26T01:10:28.868Z,101269.19
2023-04-26T01:10:53.275Z,101267.44
2023-04-26T01:11:16.685Z,101274.50
2023-04-26T01:11:38.727Z,101274.56
2023-04-26T01:12:01.324Z,101267.53
2023-04-26T01:12:24.317Z,101267.50
2023-04-26T01:12:47.852Z,101266.72
2023-04-26T01:13:14.174Z,101267.69
2023-04-26T01:13:37.114Z,101274.72
2023-04-26T01:13:58.906Z,101271.31
2023-04-26T01:14:25.130Z,101266.75
2023-04-26T01:14:47.500Z,101271.22
2023-04-26T01:15:11.440Z,101281.81
2023-04-26T01:15:33.557Z,101281.84
2023-04-26T01:15:57.303Z,101266.91
2023-04-26T01:16:20.320Z,101273.88
2023-04-26T01:16:42.370Z,101259.03
2023-04-26T01:17:06.004Z,101273.03
2023-04-26T01:17:28.128Z,101279.19
2023-04-26T01:17:52.857Z,101275.63
2023-04-26T01:18:15.127Z,101276.53
2023-04-26T01:18:36.900Z,101276.53
2023-04-26T01:18:59.349Z,101278.31
2023-04-26T01:19:21.355Z,101277.44
2023-04-26T01:19:48.449Z,101280.16
2023-04-26T01:20:10.458Z,101279.25
2023-04-26T01:20:32.297Z,101277.44
2023-04-26T01:20:54.028Z,101279.25
2023-04-26T01:21:21.940Z,101273.94
2023-04-26T01:21:43.940Z,101272.31
2023-04-26T01:22:05.591Z,101281.13
2023-04-26T01:22:28.617Z,101280.16
2023-04-26T01:22:52.740Z,101280.16
2023-04-26T01:23:14.729Z,101277.50
2023-04-26T01:23:36.438Z,101285.53
2023-04-26T01:23:58.027Z,101277.59
2023-04-26T01:24:20.646Z,101275.03
2023-04-26T01:24:44.808Z,101284.59
2023-04-26T01:25:09.260Z,101283.72
2023-04-26T01:25:30.873Z,101278.47
2023-04-26T01:25:56.141Z,101291.72
2023-04-26T01:26:17.911Z,101283.69
2023-04-26T01:26:45.241Z,101269.56
2023-04-26T01:27:08.917Z,101285.50
2023-04-26T01:27:31.549Z,101278.38
2023-04-26T01:27:53.207Z,101279.28
2023-04-26T01:28:14.857Z,101280.16
2023-04-26T01:28:36.478Z,101272.19
2023-04-26T01:28:59.814Z,101271.34
2023-04-26T01:29:24.268Z,101278.31
2023-04-26T01:29:46.227Z,101280.97
2023-04-26T01:30:09.703Z,101283.59
2023-04-26T01:30:31.357Z,101281.84
2023-04-26T01:30:54.315Z,101269.53
2023-04-26T01:31:16.201Z,101270.44
2023-04-26T01:31:37.956Z,101267.69
2023-04-26T01:31:59.687Z,101272.16
2023-04-26T01:32:24.355Z,101279.25
2023-04-26T01:32:47.422Z,101280.16
2023-04-26T01:33:09.137Z,101276.63
2023-04-26T01:33:30.846Z,101275.81
2023-04-26T01:33:52.480Z,101274.94
2023-04-26T01:34:14.817Z,101280.25
2023-04-26T01:34:37.456Z,101279.38
2023-04-26T01:35:00.526Z,101283.78
2023-04-26T01:35:22.296Z,101282.03
2023-04-26T01:35:44.042Z,101289.13
2023-04-26T01:36:08.663Z,101268.13
2023-04-26T01:36:32.456Z,101284.78
2023-04-26T01:36:54.217Z,101271.66
2023-04-26T01:37:15.878Z,101272.47
2023-04-26T01:37:37.690Z,101279.53
2023-04-26T01:38:00.812Z,101283.03
2023-04-26T01:38:24.096Z,101283.94
2023-04-26T01:38:45.759Z,101277.78
2023-04-26T01:39:08.188Z,101283.09
2023-04-26T01:39:29.797Z,101281.34
2023-04-26T01:39:51.466Z,101282.22
2023-04-26T01:40:15.891Z,101276.97
2023-04-26T01:40:37.967Z,101288.44
2023-04-26T01:41:01.045Z,101285.81
2023-04-26T01:41:22.668Z,101286.72
2023-04-26T01:41:45.334Z,101284.94
2023-04-26T01:42:07.434Z,101271.84
2023-04-26T01:42:28.986Z,101279.56
2023-04-26T01:42:50.768Z,101283.94
2023-04-26T01:43:13.444Z,101273.44
2023-04-26T01:43:35.771Z,101284.81
2023-04-26T01:43:57.421Z,101269.06
2023-04-26T01:44:19.721Z,101285.75
2023-04-26T01:44:42.440Z,101282.22
2023-04-26T01:45:05.314Z,101283.97
2023-04-26T01:45:47.030Z,101277.84
2023-04-26T01:46:24.575Z,101290.16
2023-04-26T01:46:47.334Z,101284.84
2023-04-26T01:47:09.129Z,101283.09
2023-04-26T01:47:30.921Z,101280.41
2023-04-26T01:47:52.618Z,101285.72
2023-04-26T01:48:15.278Z,101289.19
2023-04-26T01:48:36.915Z,101275.06
2023-04-26T01:48:58.621Z,101279.56
2023-04-26T01:49:20.309Z,101277.78
2023-04-26T01:49:43.129Z,101283.03
2023-04-26T01:50:06.218Z,101277.69
2023-04-26T01:50:28.216Z,101285.72
2023-04-26T01:50:49.905Z,101280.44
2023-04-26T01:51:11.600Z,101272.66
2023-04-26T01:51:35.219Z,101276.97
2023-04-26T01:51:56.907Z,101272.56
2023-04-26T01:52:19.134Z,101284.97
2023-04-26T01:52:40.902Z,101282.31
2023-04-26T01:53:04.513Z,101276.19
2023-04-26T01:53:27.131Z,101256.91
2023-04-26T01:53:48.751Z,101270.00
2023-04-26T01:54:10.433Z,101278.84
2023-04-26T01:54:32.040Z,101281.41
2023-04-26T01:54:56.208Z,101276.91
2023-04-26T01:55:17.814Z,101276.91
2023-04-26T01:55:39.563Z,101275.22
2023-04-26T01:56:01.727Z,101269.91
2023-04-26T01:56:24.932Z,101265.50
2023-04-26T01:56:47.945Z,101275.28
2023-04-26T01:57:09.824Z,101277.00
2023-04-26T01:57:31.536Z,101275.19
2023-04-26T01:57:54.099Z,101275.28
2023-04-26T01:58:16.778Z,101276.16
2023-04-26T01:58:38.418Z,101281.41
2023-04-26T01:59:00.028Z,101269.06
2023-04-26T01:59:21.690Z,101270.78
2023-04-26T01:59:44.273Z,101271.69
2023-04-26T02:00:08.699Z,101272.56
2023-04-26T02:00:36.646Z,101272.56
2023-04-26T02:01:05.768Z,101278.81
2023-04-26T02:01:28.426Z,101279.63
2023-04-26T02:01:50.139Z,101269.00
2023-04-26T02:02:11.968Z,101268.13
2023-04-26T02:02:33.838Z,101274.31
2023-04-26T02:02:56.859Z,101268.16
2023-04-26T02:03:18.677Z,101262.88
2023-04-26T02:03:40.518Z,101280.53
2023-04-26T02:04:02.114Z,101270.81
2023-04-26T02:04:25.046Z,101270.81
2023-04-26T02:04:46.808Z,101277.88
2023-04-26T02:05:11.129Z,101279.75
2023-04-26T02:05:32.893Z,101276.25
2023-04-26T02:05:54.626Z,101275.38
2023-04-26T02:06:17.264Z,101282.47
2023-04-26T02:06:39.286Z,101271.84
2023-04-26T02:07:00.902Z,101278.94
2023-04-26T02:07:22.585Z,101269.28
2023-04-26T02:07:44.288Z,101278.94
2023-04-26T02:08:08.288Z,101274.53
2023-04-26T02:08:30.175Z,101273.56
2023-04-26T02:08:52.541Z,101279.81
2023-04-26T02:09:14.429Z,101278.03
2023-04-26T02:09:37.397Z,101276.28
2023-04-26T02:09:59.192Z,101271.91
2023-04-26T02:10:20.926Z,101275.47
2023-04-26T02:10:42.533Z,101273.66
2023-04-26T02:11:04.354Z,101232.59
2023-04-26T02:11:27.356Z,101270.13
2023-04-26T02:11:48.904Z,101274.53
2023-04-26T02:12:10.513Z,101275.47
2023-04-26T02:12:32.140Z,101275.41
2023-04-26T02:12:54.756Z,101266.66
2023-04-26T02:13:16.333Z,101274.66
2023-04-26T02:13:38.208Z,101275.47
2023-04-26T02:13:59.908Z,101273.72
2023-04-26T02:14:22.443Z,101273.72
2023-04-26T02:14:44.162Z,101267.53
2023-04-26T02:15:08.279Z,101260.53
2023-04-26T02:15:29.860Z,101271.94
2023-04-26T02:15:52.942Z,101277.25
2023-04-26T02:16:16.402Z,101270.13
2023-04-26T02:16:39.978Z,101269.31
2023-04-26T02:17:02.709Z,101261.41
2023-04-26T02:17:26.488Z,101266.63
2023-04-26T02:17:49.475Z,101257.97
2023-04-26T02:18:11.550Z,101271.06
2023-04-26T02:18:34.392Z,101273.72
2023-04-26T02:18:55.982Z,101279.91
2023-04-26T02:19:17.566Z,101275.47
2023-04-26T02:19:39.205Z,101267.53
2023-04-26T02:20:01.798Z,101267.53
2023-04-26T02:20:23.663Z,101266.69
2023-04-26T02:20:45.718Z,101273.69
2023-04-26T02:21:08.561Z,101272.81
2023-04-26T02:21:30.626Z,101275.41
2023-04-26T02:21:55.683Z,101272.78
2023-04-26T02:22:17.850Z,101273.69
2023-04-26T02:22:39.538Z,101273.72
2023-04-26T02:23:01.286Z,101265.84
2023-04-26T02:23:25.435Z,101255.41
2023-04-26T02:23:47.072Z,101277.34
2023-04-26T02:24:09.184Z,101273.84
2023-04-26T02:24:53.711Z,101273.88
2023-04-26T02:25:15.737Z,101273.88
2023-04-26T02:25:37.873Z,101269.47
2023-04-26T02:25:59.514Z,101269.47
2023-04-26T02:26:22.073Z,101275.72
2023-04-26T02:26:43.755Z,101275.69
2023-04-26T02:27:05.494Z,101270.34
2023-04-26T02:27:29.327Z,101270.41
2023-04-26T02:27:51.907Z,101272.19
2023-04-26T02:28:13.736Z,101271.31
2023-04-26T02:28:35.356Z,101268.75
2023-04-26T02:28:56.990Z,101268.66
2023-04-26T02:29:29.449Z,101270.44
2023-04-26T02:30:02.039Z,101275.72
2023-04-26T02:30:24.233Z,101273.06
2023-04-26T02:30:46.980Z,101277.50
2023-04-26T02:31:08.888Z,101268.66
2023-04-26T02:31:30.663Z,101272.19
2023-04-26T02:31:52.525Z,101276.53
2023-04-26T02:32:14.653Z,101241.50
2023-04-26T02:32:37.371Z,101273.06
2023-04-26T02:32:59.321Z,101269.53
2023-04-26T02:33:21.439Z,101276.59
2023-04-26T02:33:43.101Z,101269.53
2023-04-26T02:34:06.239Z,101266.00
2023-04-26T02:34:28.148Z,101275.72
2023-04-26T02:34:49.813Z,101273.00
2023-04-26T02:35:11.415Z,101276.53
2023-04-26T02:35:33.990Z,101275.63
2023-04-26T02:35:56.645Z,101257.16
2023-04-26T02:36:18.235Z,101258.09
2023-04-26T02:36:39.949Z,101266.81
2023-04-26T02:37:01.797Z,101265.94
2023-04-26T02:37:24.387Z,101274.75
2023-04-26T02:37:48.883Z,101269.47
2023-04-26T02:38:10.478Z,101271.28
2023-04-26T02:38:35.140Z,101273.06
2023-04-26T02:38:59.367Z,101269.59
2023-04-26T02:39:21.410Z,101270.41
2023-04-26T02:39:43.139Z,101271.31
2023-04-26T02:40:06.605Z,101264.31
2023-04-26T02:40:30.152Z,101272.19
2023-04-26T02:40:58.406Z,101274.84
2023-04-26T02:41:20.348Z,101267.78
2023-04-26T02:41:42.089Z,101270.41
2023-04-26T02:42:05.050Z,101265.19
2023-04-26T02:42:26.678Z,101270.34
2023-04-26T02:42:48.709Z,101264.16
2023-04-26T02:43:10.409Z,101267.69
2023-04-26T02:43:34.520Z,101271.19
2023-04-26T02:43:56.252Z,101268.50
2023-04-26T02:44:17.895Z,101257.16
2023-04-26T02:44:39.535Z,101233.44
2023-04-26T02:45:02.310Z,101268.56
2023-04-26T02:45:24.431Z,101270.34
2023-04-26T02:45:46.074Z,101260.72
2023-04-26T02:46:08.994Z,101269.41
2023-04-26T02:46:30.737Z,101272.09
2023-04-26T02:46:53.436Z,101259.84
2023-04-26T02:47:15.322Z,101274.84
2023-04-26T02:47:38.528Z,101269.59
2023-04-26T02:48:00.575Z,101263.44
2023-04-26T02:48:23.249Z,101257.44
2023-04-26T02:48:45.457Z,101267.03
2023-04-26T02:49:07.796Z,101266.16
2023-04-26T02:49:30.649Z,101267.88
2023-04-26T02:49:53.222Z,101261.69
2023-04-26T02:50:15.001Z,101270.44
2023-04-26T02:50:36.685Z,101261.69
2023-04-26T02:50:58.995Z,101273.97
2023-04-26T02:51:20.914Z,101266.91
2023-04-26T02:51:43.495Z,101267.78
2023-04-26T02:52:05.269Z,101266.00
2023-04-26T02:52:27.273Z,101265.19
2023-04-26T02:52:48.985Z,101273.09
2023-04-26T02:53:11.634Z,101265.19
2023-04-26T02:53:35.470Z,101271.31
2023-04-26T02:53:57.232Z,101255.47
2023-04-26T02:54:19.538Z,101270.44
2023-04-26T02:54:42.119Z,101267.78
2023-04-26T02:55:04.439Z,101249.44
2023-04-26T02:55:26.105Z,101248.56
2023-04-26T02:55:48.121Z,101274.03
2023-04-26T02:56:09.996Z,101254.75
2023-04-26T02:56:32.649Z,101270.56
2023-04-26T02:56:55.654Z,101267.03
2023-04-26T02:57:17.228Z,101268.84
2023-04-26T02:57:38.837Z,101258.50
2023-04-26T02:58:03.212Z,101261.16
2023-04-26T02:58:24.877Z,101274.31
2023-04-26T02:58:47.057Z,101270.69
2023-04-26T02:59:09.092Z,101270.69
2023-04-26T02:59:32.498Z,101268.84
2023-04-26T02:59:55.413Z,101272.41
2023-04-26T03:00:17.361Z,101253.19
2023-04-26T03:00:38.997Z,101273.28
2023-04-26T03:01:01.923Z,101264.47
2023-04-26T03:01:23.897Z,101264.44
2023-04-26T03:01:45.590Z,101263.59
2023-04-26T03:02:07.696Z,101260.13
2023-04-26T03:02:31.426Z,101264.50
2023-04-26T03:02:53.379Z,101236.53
2023-04-26T03:03:15.619Z,101266.22
2023-04-26T03:03:37.774Z,101266.19
2023-04-26T03:04:00.809Z,101245.19
2023-04-26T03:04:22.781Z,101245.25
2023-04-26T03:04:44.521Z,101268.06
2023-04-26T03:05:06.501Z,101268.06
2023-04-26T03:05:29.174Z,101265.41
2023-04-26T03:05:50.819Z,101266.38
2023-04-26T03:06:12.952Z,101261.06
2023-04-26T03:06:34.756Z,101248.88
2023-04-26T03:07:05.225Z,101266.38
2023-04-26T03:07:36.600Z,101264.59
2023-04-26T03:07:58.364Z,101262.84
2023-04-26T03:08:19.940Z,101274.31
2023-04-26T03:08:43.892Z,101254.81
2023-04-26T03:09:06.748Z,101270.69
2023-04-26T03:09:28.406Z,101267.19
2023-04-26T03:09:50.135Z,101261.88
2023-04-26T03:10:12.711Z,101265.41
2023-04-26T03:10:37.127Z,101263.63
2023-04-26T03:10:58.807Z,101258.41
2023-04-26T03:11:20.482Z,101264.66
2023-04-26T03:11:42.351Z,101257.56
2023-04-26T03:12:07.619Z,101254.03
2023-04-26T03:12:30.098Z,101268.06
2023-04-26T03:12:51.690Z,101266.22
2023-04-26T03:13:13.382Z,101270.63
2023-04-26T03:13:36.559Z,101260.03
2023-04-26T03:13:58.952Z,101264.44
2023-04-26T03:14:20.601Z,101261.78
2023-04-26T03:14:42.352Z,101267.09
2023-04-26T03:15:05.489Z,101267.97
2023-04-26T03:15:28.054Z,101259.22
2023-04-26T03:15:51.953Z,101247.09
2023-04-26T03:16:13.675Z,101260.19
2023-04-26T03:16:43.412Z,101267.25
2023-04-26T03:17:05.390Z,101270.78
2023-04-26T03:17:28.203Z,101265.50
2023-04-26T03:17:50.160Z,101259.31
2023-04-26T03:18:12.214Z,101265.56
2023-04-26T03:18:34.883Z,101261.22
2023-04-26T03:18:56.812Z,101268.31
2023-04-26T03:19:19.452Z,101268.28
2023-04-26T03:19:42.102Z,101254.25
2023-04-26T03:20:06.113Z,101266.53
2023-04-26T03:20:29.519Z,101263.84
2023-04-26T03:20:52.796Z,101263.88
2023-04-26T03:21:16.549Z,101260.34
2023-04-26T03:21:38.172Z,101260.44
2023-04-26T03:22:01.288Z,101261.25
2023-04-26T03:22:23.362Z,101257.72
2023-04-26T03:22:46.950Z,101264.75
2023-04-26T03:23:09.971Z,101261.22
2023-04-26T03:23:33.073Z,101264.69
2023-04-26T03:23:56.476Z,101267.25
2023-04-26T03:24:18.216Z,101262.84
2023-04-26T03:24:41.249Z,101262.84
2023-04-26T03:25:05.326Z,101263.72
2023-04-26T03:25:27.632Z,101262.84
2023-04-26T03:25:49.247Z,101262.03
2023-04-26T03:26:11.082Z,101261.22
2023-04-26T03:26:32.933Z,101259.47
2023-04-26T03:26:55.579Z,101262.16
2023-04-26T03:27:17.419Z,101265.59
2023-04-26T03:27:39.584Z,101265.59
2023-04-26T03:28:01.349Z,101267.31
2023-04-26T03:28:24.013Z,101263.75
2023-04-26T03:28:45.761Z,101258.38
2023-04-26T03:29:07.703Z,101268.09
2023-04-26T03:29:29.408Z,101263.72
2023-04-26T03:29:52.124Z,101254.97
2023-04-26T03:30:14.675Z,101259.31
2023-04-26T03:30:38.300Z,101260.19
2023-04-26T03:31:01.723Z,101251.44
2023-04-26T03:31:24.657Z,101262.84
2023-04-26T03:31:47.426Z,101258.50
2023-04-26T03:32:09.088Z,101260.28
2023-04-26T03:32:31.206Z,101258.56
2023-04-26T03:32:53.323Z,101248.06
2023-04-26T03:33:15.947Z,101258.66
2023-04-26T03:33:39.168Z,101252.47
2023-04-26T03:34:00.860Z,101243.66
2023-04-26T03:34:22.685Z,101255.94
2023-04-26T03:34:44.461Z,101241.00
2023-04-26T03:35:07.469Z,101234.81
2023-04-26T03:35:29.130Z,101233.94
2023-04-26T03:35:51.502Z,101255.78
2023-04-26T03:36:14.184Z,101260.22
2023-04-26T03:36:35.802Z,101261.06
2023-04-26T03:36:59.362Z,101254.09
2023-04-26T03:37:21.324Z,101251.44
2023-04-26T03:37:53.219Z,101257.56
2023-04-26T03:38:15.489Z,101244.53
2023-04-26T03:38:37.104Z,101257.69
2023-04-26T03:39:00.200Z,101250.66
2023-04-26T03:39:22.006Z,101241.09
2023-04-26T03:39:44.643Z,101252.50
2023-04-26T03:40:08.579Z,101256.91
2023-04-26T03:40:30.252Z,101246.38
2023-04-26T03:40:52.257Z,101250.84
2023-04-26T03:41:13.877Z,101246.44
2023-04-26T03:41:39.368Z,101252.63
2023-04-26T03:42:03.895Z,101246.53
2023-04-26T03:42:25.489Z,101254.47
2023-04-26T03:42:47.548Z,101249.22
2023-04-26T03:43:11.470Z,101252.78
2023-04-26T03:43:33.389Z,101244.00
2023-04-26T03:43:55.454Z,101251.97
2023-04-26T03:44:18.352Z,101252.09
2023-04-26T03:44:41.071Z,101258.16
2023-04-26T03:45:03.855Z,101252.03
2023-04-26T03:45:26.818Z,101257.38
2023-04-26T03:45:50.385Z,101245.94
2023-04-26T03:46:13.157Z,101247.63
2023-04-26T03:46:34.880Z,101255.53
2023-04-26T03:46:59.513Z,101252.00
2023-04-26T03:47:21.508Z,101253.72
2023-04-26T03:47:43.609Z,101256.31
2023-04-26T03:48:07.160Z,101251.88
2023-04-26T03:48:28.874Z,101252.78
2023-04-26T03:48:50.722Z,101254.47
2023-04-26T03:49:12.452Z,101255.41
2023-04-26T03:49:35.077Z,101248.38
2023-04-26T03:49:56.793Z,101256.22
2023-04-26T03:50:19.523Z,101247.41
2023-04-26T03:50:41.767Z,101254.41
2023-04-26T03:51:04.685Z,101251.75
2023-04-26T03:51:28.233Z,101249.94
2023-04-26T03:51:49.881Z,101256.09
2023-04-26T03:52:11.535Z,101242.06
2023-04-26T03:52:33.216Z,101255.22
2023-04-26T03:52:56.355Z,101247.34
2023-04-26T03:53:17.974Z,101253.44
2023-04-26T03:53:39.708Z,101252.50
2023-04-26T03:54:03.426Z,101253.38
2023-04-26T03:54:25.396Z,101258.59
2023-04-26T03:54:48.036Z,101257.75
2023-04-26T03:55:11.858Z,101262.16
2023-04-26T03:55:34.013Z,101251.59
2023-04-26T03:55:56.457Z,101258.59
2023-04-26T03:56:19.041Z,101255.94
2023-04-26T03:56:41.320Z,101252.41
2023-04-26T03:57:03.270Z,101253.28
2023-04-26T03:57:24.913Z,101256.88
2023-04-26T03:57:46.896Z,101256.84
2023-04-26T03:58:09.639Z,101254.19
2023-04-26T03:58:31.323Z,101243.66
2023-04-26T03:58:53.202Z,101247.16
2023-04-26T03:59:15.488Z,101259.53
2023-04-26T03:59:38.936Z,101253.38
2023-04-26T04:00:00.597Z,101252.50
2023-04-26T04:00:22.654Z,101244.53
2023-04-26T04:00:44.506Z,101251.53
2023-04-26T04:01:07.039Z,101250.66
2023-04-26T04:01:29.533Z,101252.50
2023-04-26T04:01:51.335Z,101250.72
2023-04-26T04:02:13.163Z,101250.78
2023-04-26T04:02:36.173Z,101256.94
2023-04-26T04:02:59.189Z,101252.50
2023-04-26T04:03:21.840Z,101257.78
2023-04-26T04:03:44.127Z,101255.19
2023-04-26T04:04:06.260Z,101236.75
2023-04-26T04:04:29.453Z,101257.78
2023-04-26T04:04:52.272Z,101250.78
2023-04-26T04:05:14.239Z,101258.72
2023-04-26T04:05:37.956Z,101251.69
2023-04-26T04:06:00.048Z,101249.94
2023-04-26T04:06:21.893Z,101254.31
2023-04-26T04:06:44.156Z,101254.31
2023-04-26T04:07:07.950Z,101249.00
2023-04-26T04:07:29.960Z,101243.78
2023-04-26T04:07:52.157Z,101256.97
2023-04-26T04:08:15.587Z,101256.97
2023-04-26T04:08:38.191Z,101255.22
2023-04-26T04:09:04.186Z,101256.97
2023-04-26T04:09:26.243Z,101262.25
2023-04-26T04:09:48.776Z,101262.28
2023-04-26T04:10:11.981Z,101260.50
2023-04-26T04:10:36.107Z,101268.44
2023-04-26T04:10:57.766Z,101261.44
2023-04-26T04:11:21.407Z,101261.44
2023-04-26T04:11:43.080Z,101262.41
2023-04-26T04:12:04.944Z,101262.41
2023-04-26T04:12:27.122Z,101267.72
2023-04-26T04:12:50.086Z,101260.72
2023-04-26T04:13:11.824Z,101261.66
2023-04-26T04:13:33.489Z,101258.09
2023-04-26T04:13:55.173Z,101254.63
2023-04-26T04:14:17.757Z,101248.50
2023-04-26T04:14:41.301Z,101262.53
2023-04-26T04:15:03.309Z,101259.00
2023-04-26T04:15:25.647Z,101255.50
2023-04-26T04:15:49.750Z,101260.84
2023-04-26T04:16:11.523Z,101259.09
2023-04-26T04:16:33.234Z,101259.09
2023-04-26T04:16:54.853Z,101266.94
2023-04-26T04:17:16.638Z,101262.53
2023-04-26T04:17:39.361Z,101242.34
2023-04-26T04:18:00.995Z,101261.59
2023-04-26T04:18:22.636Z,101260.72
2023-04-26T04:18:44.298Z,101254.53
2023-04-26T04:19:06.832Z,101259.81